sensor_id;sensor_type;location;lat;lon;timestamp;pressure;altitude;pressure_sealevel;temperature;humidity
71195;BME280;58908;51.426;7.714;2023-02-03T00:00:08;100599.34;;;7.05;100.00
71195;BME280;58908;51.426;7.714;2023-02-03T00:02:34;100582.00;;;7.02;100.00
71195;BME280;58908;51.426;7.714;2023-02-03T00:05:00;100598.66;;;6.99;100.00
71195;BME280;58908;51.426;7.714;2023-02-03T00:07:27;100583.75;;;7.01;100.00
71195;BME280;58908;51.426;7.714;2023-02-03T00:09:53;100581.13;;;7.01;100.00
71195;BME280;58908;51.426;7.714;2023-02-03T00:12:20;100571.53;;;7.00;100.00
71195;BME280;58908;51.426;7.714;2023-02-03T00:14:46;100574.31;;;6.94;100.00
71195;BME280;58908;51.426;7.714;2023-02-03T00:17:14;100572.53;;;6.96;100.00
71195;BME280;58908;51.426;7.714;2023-02-03T00:19:40;100579.38;;;7.02;100.00
71195;BME280;58908;51.426;7.714;2023-02-03T00:22:06;100584.63;;;7.02;100.00
71195;BME280;58908;51.426;7.714;2023-02-03T00:24:32;100569.81;;;6.99;100.00
71195;BME280;58908;51.426;7.714;2023-02-03T00:26:59;100562.88;;;6.97;100.00
71195;BME280;58908;51.426;7.714;2023-02-03T00:29:25;100563.69;;;6.98;100.00
71195;BME280;58908;51.426;7.714;2023-02-03T00:31:51;100563.75;;;6.97;100.00
71195;BME280;58908;51.426;7.714;2023-02-03T00:34:19;100568.03;;;6.99;100.00
71195;BME280;58908;51.426;7.714;2023-02-03T00:36:46;100553.97;;;7.02;100.00
71195;BME280;58908;51.426;7.714;2023-02-03T00:39:13;100554.91;;;6.99;100.00
71195;BME280;58908;51.426;7.714;2023-02-03T00:41:39;100561.94;;;6.99;100.00
71195;BME280;58908;51.426;7.714;2023-02-03T00:44:06;100554.88;;;7.01;100.00
71195;BME280;58908;51.426;7.714;2023-02-03T00:46:32;100561.84;;;7.02;100.00
71195;BME280;58908;51.426;7.714;2023-02-03T00:49:00;100554.84;;;7.03;100.00
71195;BME280;58908;51.426;7.714;2023-02-03T00:51:27;100560.09;;;7.03;100.00
71195;BME280;58908;51.426;7.714;2023-02-03T00:53:54;100564.31;;;7.08;100.00
71195;BME280;58908;51.426;7.714;2023-02-03T00:56:20;100560.88;;;7.06;100.00
71195;BME280;58908;51.426;7.714;2023-02-03T00:58:46;100570.50;;;7.05;100.00
71195;BME280;58908;51.426;7.714;2023-02-03T01:01:12;100569.63;;;7.05;100.00
71195;BME280;58908;51.426;7.714;2023-02-03T01:03:38;100568.66;;;7.07;100.00
71195;BME280;58908;51.426;7.714;2023-02-03T01:06:09;100573.13;;;7.05;100.00
71195;BME280;58908;51.426;7.714;2023-02-03T01:08:36;100579.25;;;7.04;100.00
71195;BME280;58908;51.426;7.714;2023-02-03T01:11:06;100584.53;;;7.03;100.00
71195;BME280;58908;51.426;7.714;2023-02-03T01:13:33;100588.94;;;7.03;100.00
71195;BME280;58908;51.426;7.714;2023-02-03T01:15:59;100597.59;;;7.06;100.00
71195;BME280;58908;51.426;7.714;2023-02-03T01:18:25;100600.22;;;7.06;100.00
71195;BME280;58908;51.426;7.714;2023-02-03T01:20:51;100603.69;;;7.06;100.00
71195;BME280;58908;51.426;7.714;2023-02-03T01:23:18;100608.13;;;7.04;100.00
71195;BME280;58908;51.426;7.714;2023-02-03T01:25:45;100623.72;;;7.09;100.00
71195;BME280;58908;51.426;7.714;2023-02-03T01:28:12;100615.78;;;7.10;100.00
71195;BME280;58908;51.426;7.714;2023-02-03T01:30:38;100604.41;;;7.11;100.00
71195;BME280;58908;51.426;7.714;2023-02-03T01:33:04;100590.47;;;7.09;100.00
71195;BME280;58908;51.426;7.714;2023-02-03T01:35:32;100586.19;;;7.07;100.00
71195;BME280;58908;51.426;7.714;2023-02-03T01:37:59;100585.19;;;7.11;100.00
71195;BME280;58908;51.426;7.714;2023-02-03T01:40:25;100579.06;;;7.10;100.00
71195;BME280;58908;51.426;7.714;2023-02-03T01:42:52;100586.13;;;7.08;100.00
71195;BME280;58908;51.426;7.714;2023-02-03T01:45:19;100595.78;;;7.08;100.00
71195;BME280;58908;51.426;7.714;2023-02-03T01:47:45;100587.97;;;7.05;100.00
71195;BME280;58908;51.426;7.714;2023-02-03T01:50:13;100598.53;;;7.03;100.00
71195;BME280;58908;51.426;7.714;2023-02-03T01:52:43;100602.59;;;7.13;100.00
71195;BME280;58908;51.426;7.714;2023-02-03T01:55:10;100599.72;;;7.22;100.00
71195;BME280;58908;51.426;7.714;2023-02-03T01:57:39;100600.66;;;7.20;100.00
71195;BME280;58908;51.426;7.714;2023-02-03T02:00:09;100596.31;;;7.19;100.00
71195;BME280;58908;51.426;7.714;2023-02-03T02:02:36;100591.22;;;7.14;100.00
71195;BME280;58908;51.426;7.714;2023-02-03T02:05:04;100596.50;;;7.13;100.00
71195;BME280;58908;51.426;7.714;2023-02-03T02:07:30;100585.88;;;7.16;100.00
71195;BME280;58908;51.426;7.714;2023-02-03T02:09:58;100592.94;;;7.14;100.00
71195;BME280;58908;51.426;7.714;2023-02-03T02:12:24;100587.63;;;7.17;100.00
71195;BME280;58908;51.426;7.714;2023-02-03T02:14:51;100591.91;;;7.19;100.00
71195;BME280;58908;51.426;7.714;2023-02-03T02:17:23;100590.09;;;7.21;100.00
71195;BME280;58908;51.426;7.714;2023-02-03T02:20:06;100581.38;;;7.21;100.00
71195;BME280;58908;51.426;7.714;2023-02-03T02:22:41;100575.13;;;7.25;100.00
71195;BME280;58908;51.426;7.714;2023-02-03T02:25:19;100565.41;;;7.28;100.00
71195;BME280;58908;51.426;7.714;2023-02-03T02:28:01;100556.75;;;7.25;100.00
71195;BME280;58908;51.426;7.714;2023-02-03T02:33:31;100539.16;;;7.28;100.00
71195;BME280;58908;51.426;7.714;2023-02-03T02:36:01;100533.09;;;7.26;100.00
71195;BME280;58908;51.426;7.714;2023-02-03T02:38:34;100523.56;;;7.24;100.00
71195;BME280;58908;51.426;7.714;2023-02-03T02:41:03;100527.06;;;7.24;100.00
71195;BME280;58908;51.426;7.714;2023-02-03T02:43:33;100527.84;;;7.26;100.00
71195;BME280;58908;51.426;7.714;2023-02-03T02:46:01;100521.94;;;7.20;100.00
71195;BME280;58908;51.426;7.714;2023-02-03T02:48:30;100526.97;;;7.26;100.00
71195;BME280;58908;51.426;7.714;2023-02-03T02:50:58;100529.56;;;7.27;100.00
71195;BME280;58908;51.426;7.714;2023-02-03T02:53:28;100531.19;;;7.31;100.00
71195;BME280;58908;51.426;7.714;2023-02-03T02:55:57;100520.69;;;7.31;100.00
71195;BME280;58908;51.426;7.714;2023-02-03T02:58:26;100512.13;;;7.26;100.00
71195;BME280;58908;51.426;7.714;2023-02-03T03:00:53;100510.50;;;7.22;100.00
71195;BME280;58908;51.426;7.714;2023-02-03T03:03:20;100512.22;;;7.23;100.00
71195;BME280;58908;51.426;7.714;2023-02-03T03:05:48;100520.91;;;7.25;100.00
71195;BME280;58908;51.426;7.714;2023-02-03T03:08:17;100508.44;;;7.32;100.00
71195;BME280;58908;51.426;7.714;2023-02-03T03:10:46;100518.03;;;7.33;100.00
71195;BME280;58908;51.426;7.714;2023-02-03T03:13:17;100544.00;;;7.40;100.00
71195;BME280;58908;51.426;7.714;2023-02-03T03:15:45;100592.84;;;7.46;100.00
71195;BME280;58908;51.426;7.714;2023-02-03T03:18:13;100593.69;;;7.46;100.00
71195;BME280;58908;51.426;7.714;2023-02-03T03:20:41;100591.09;;;7.46;100.00
71195;BME280;58908;51.426;7.714;2023-02-03T03:23:09;100563.44;;;7.35;100.00
71195;BME280;58908;51.426;7.714;2023-02-03T03:25:39;100574.03;;;7.32;100.00
71195;BME280;58908;51.426;7.714;2023-02-03T03:28:09;100570.41;;;7.36;100.00
71195;BME280;58908;51.426;7.714;2023-02-03T03:30:36;100564.25;;;7.37;100.00
71195;BME280;58908;51.426;7.714;2023-02-03T03:33:04;100546.78;;;7.36;100.00
71195;BME280;58908;51.426;7.714;2023-02-03T03:35:37;100532.16;;;7.29;100.00
71195;BME280;58908;51.426;7.714;2023-02-03T03:38:06;100531.28;;;7.28;100.00
71195;BME280;58908;51.426;7.714;2023-02-03T03:40:36;100535.59;;;7.31;100.00
71195;BME280;58908;51.426;7.714;2023-02-03T03:43:05;100539.94;;;7.32;100.00
71195;BME280;58908;51.426;7.714;2023-02-03T03:45:34;100549.69;;;7.27;100.00
71195;BME280;58908;51.426;7.714;2023-02-03T03:48:05;100555.78;;;7.29;100.00
71195;BME280;58908;51.426;7.714;2023-02-03T03:50:35;100545.31;;;7.27;100.00
71195;BME280;58908;51.426;7.714;2023-02-03T03:53:03;100534.84;;;7.26;100.00
71195;BME280;58908;51.426;7.714;2023-02-03T03:55:32;100536.69;;;7.24;100.00
71195;BME280;58908;51.426;7.714;2023-02-03T03:58:00;100536.75;;;7.22;100.00
71195;BME280;58908;51.426;7.714;2023-02-03T04:00:30;100529.72;;;7.23;100.00
71195;BME280;58908;51.426;7.714;2023-02-03T04:02:59;100531.56;;;7.19;100.00
71195;BME280;58908;51.426;7.714;2023-02-03T04:05:27;100550.69;;;7.23;100.00
71195;BME280;58908;51.426;7.714;2023-02-03T04:07:53;100558.53;;;7.24;100.00
71195;BME280;58908;51.426;7.714;2023-02-03T04:10:21;100552.38;;;7.25;100.00
71195;BME280;58908;51.426;7.714;2023-02-03T04:12:50;100541.88;;;7.25;100.00
71195;BME280;58908;51.426;7.714;2023-02-03T04:15:16;100538.13;;;7.32;100.00
71195;BME280;58908;51.426;7.714;2023-02-03T04:17:44;100527.66;;;7.32;100.00
71195;BME280;58908;51.426;7.714;2023-02-03T04:20:10;100533.88;;;7.30;100.00
71195;BME280;58908;51.426;7.714;2023-02-03T04:22:37;100520.75;;;7.30;100.00
71195;BME280;58908;51.426;7.714;2023-02-03T04:25:03;100532.97;;;7.31;100.00
71195;BME280;58908;51.426;7.714;2023-02-03T04:27:30;100519.88;;;7.29;100.00
71195;BME280;58908;51.426;7.714;2023-02-03T04:29:56;100533.88;;;7.30;100.00
71195;BME280;58908;51.426;7.714;2023-02-03T04:32:22;100526.78;;;7.33;100.00
71195;BME280;58908;51.426;7.714;2023-02-03T04:34:50;100536.25;;;7.37;100.00
71195;BME280;58908;51.426;7.714;2023-02-03T04:37:16;100526.69;;;7.35;100.00
71195;BME280;58908;51.426;7.714;2023-02-03T04:39:43;100539.00;;;7.33;100.00
71195;BME280;58908;51.426;7.714;2023-02-03T04:42:09;100539.63;;;7.41;100.00
71195;BME280;58908;51.426;7.714;2023-02-03T04:44:35;100538.88;;;7.37;100.00
71195;BME280;58908;51.426;7.714;2023-02-03T04:47:01;100537.19;;;7.35;100.00
71195;BME280;58908;51.426;7.714;2023-02-03T04:49:28;100541.59;;;7.34;100.00
71195;BME280;58908;51.426;7.714;2023-02-03T04:51:55;100537.25;;;7.33;100.00
71195;BME280;58908;51.426;7.714;2023-02-03T04:54:21;100520.50;;;7.37;100.00
71195;BME280;58908;51.426;7.714;2023-02-03T04:56:48;100510.84;;;7.38;100.00
71195;BME280;58908;51.426;7.714;2023-02-03T04:59:14;100502.00;;;7.42;100.00
71195;BME280;58908;51.426;7.714;2023-02-03T05:01:40;100508.28;;;7.36;100.00
71195;BME280;58908;51.426;7.714;2023-02-03T05:04:06;100489.91;;;7.36;100.00
71195;BME280;58908;51.426;7.714;2023-02-03T05:06:33;100485.59;;;7.35;100.00
71195;BME280;58908;51.426;7.714;2023-02-03T05:09:00;100496.91;;;7.36;100.00
71195;BME280;58908;51.426;7.714;2023-02-03T05:11:27;100501.34;;;7.35;100.00
71195;BME280;58908;51.426;7.714;2023-02-03T05:13:53;100506.38;;;7.41;100.00
71195;BME280;58908;51.426;7.714;2023-02-03T05:16:20;100508.19;;;7.39;100.00
71195;BME280;58908;51.426;7.714;2023-02-03T05:18:46;100495.81;;;7.43;100.00
71195;BME280;58908;51.426;7.714;2023-02-03T05:21:12;100494.81;;;7.47;100.00
71195;BME280;58908;51.426;7.714;2023-02-03T05:23:38;100484.44;;;7.42;100.00
71195;BME280;58908;51.426;7.714;2023-02-03T05:26:06;100487.03;;;7.44;100.00
71195;BME280;58908;51.426;7.714;2023-02-03T05:28:32;100494.88;;;7.45;100.00
71195;BME280;58908;51.426;7.714;2023-02-03T05:30:59;100504.50;;;7.45;100.00
71195;BME280;58908;51.426;7.714;2023-02-03T05:33:26;100500.19;;;7.42;100.00
71195;BME280;58908;51.426;7.714;2023-02-03T05:35:52;100495.94;;;7.40;100.00
71195;BME280;58908;51.426;7.714;2023-02-03T05:38:18;100491.75;;;7.34;100.00
71195;BME280;58908;51.426;7.714;2023-02-03T05:40:46;100494.22;;;7.39;100.00
71195;BME280;58908;51.426;7.714;2023-02-03T05:43:46;100489.84;;;7.38;100.00
71195;BME280;58908;51.426;7.714;2023-02-03T05:46:12;100471.44;;;7.39;100.00
71195;BME280;58908;51.426;7.714;2023-02-03T05:48:38;100482.03;;;7.36;100.00
71195;BME280;58908;51.426;7.714;2023-02-03T05:51:05;100481.94;;;7.39;100.00
71195;BME280;58908;51.426;7.714;2023-02-03T05:53:31;100501.19;;;7.40;100.00
71195;BME280;58908;51.426;7.714;2023-02-03T05:55:57;100490.69;;;7.40;100.00
71195;BME280;58908;51.426;7.714;2023-02-03T05:58:23;100488.09;;;7.38;100.00
71195;BME280;58908;51.426;7.714;2023-02-03T06:00:51;100496.91;;;7.36;100.00
71195;BME280;58908;51.426;7.714;2023-02-03T06:03:18;100485.63;;;7.34;100.00
71195;BME280;58908;51.426;7.714;2023-02-03T06:05:44;100486.41;;;7.36;100.00
71195;BME280;58908;51.426;7.714;2023-02-03T06:08:10;100496.00;;;7.37;100.00
71195;BME280;58908;51.426;7.714;2023-02-03T06:10:36;100493.53;;;7.32;100.00
71195;BME280;58908;51.426;7.714;2023-02-03T06:13:09;100484.81;;;7.32;100.00
71195;BME280;58908;51.426;7.714;2023-02-03T06:15:35;100488.00;;;7.41;100.00
71195;BME280;58908;51.426;7.714;2023-02-03T06:18:03;100489.78;;;7.41;100.00
71195;BME280;58908;51.426;7.714;2023-02-03T06:20:29;100487.03;;;7.44;100.00
71195;BME280;58908;51.426;7.714;2023-02-03T06:22:56;100502.63;;;7.48;100.00
71195;BME280;58908;51.426;7.714;2023-02-03T06:25:22;100493.09;;;7.46;100.00
71195;BME280;58908;51.426;7.714;2023-02-03T06:27:49;100489.78;;;7.41;100.00
71195;BME280;58908;51.426;7.714;2023-02-03T06:30:15;100484.00;;;7.56;100.00
71195;BME280;58908;51.426;7.714;2023-02-03T06:32:42;100484.81;;;7.58;100.00
71195;BME280;58908;51.426;7.714;2023-02-03T06:35:09;100503.41;;;7.52;100.00
71195;BME280;58908;51.426;7.714;2023-02-03T06:37:35;100485.88;;;7.52;100.00
71195;BME280;58908;51.426;7.714;2023-02-03T06:40:02;100495.38;;;7.56;100.00
71195;BME280;58908;51.426;7.714;2023-02-03T06:42:29;100499.72;;;7.57;100.00
71195;BME280;58908;51.426;7.714;2023-02-03T06:44:55;100489.06;;;7.62;100.00
71195;BME280;58908;51.426;7.714;2023-02-03T06:47:21;100502.19;;;7.62;100.00
71195;BME280;58908;51.426;7.714;2023-02-03T06:49:48;100509.19;;;7.61;100.00
71195;BME280;58908;51.426;7.714;2023-02-03T06:52:17;100496.94;;;7.62;100.00
71195;BME280;58908;51.426;7.714;2023-02-03T06:54:43;100503.03;;;7.62;100.00
71195;BME280;58908;51.426;7.714;2023-02-03T06:57:09;100495.28;;;7.59;100.00
71195;BME280;58908;51.426;7.714;2023-02-03T06:59:35;100495.03;;;7.65;100.00
71195;BME280;58908;51.426;7.714;2023-02-03T07:02:02;100500.25;;;7.67;100.00
71195;BME280;58908;51.426;7.714;2023-02-03T07:04:28;100497.59;;;7.68;100.00
71195;BME280;58908;51.426;7.714;2023-02-03T07:06:55;100503.69;;;7.69;100.00
71195;BME280;58908;51.426;7.714;2023-02-03T07:09:22;100506.53;;;7.63;100.00
71195;BME280;58908;51.426;7.714;2023-02-03T07:11:49;100523.09;;;7.65;100.00
71195;BME280;58908;51.426;7.714;2023-02-03T07:14:15;100517.88;;;7.63;100.00
71195;BME280;58908;51.426;7.714;2023-02-03T07:16:41;100524.91;;;7.63;100.00
71195;BME280;58908;51.426;7.714;2023-02-03T07:19:07;100531.91;;;7.62;100.00
71195;BME280;58908;51.426;7.714;2023-02-03T07:21:34;100512.91;;;7.54;100.00
71195;BME280;58908;51.426;7.714;2023-02-03T07:24:00;100499.22;;;7.46;100.00
71195;BME280;58908;51.426;7.714;2023-02-03T07:26:28;100502.09;;;7.39;100.00
71195;BME280;58908;51.426;7.714;2023-02-03T07:28:54;100499.75;;;7.30;100.00
71195;BME280;58908;51.426;7.714;2023-02-03T07:31:23;100495.56;;;7.24;100.00
71195;BME280;58908;51.426;7.714;2023-02-03T07:33:50;100484.34;;;7.19;100.00
71195;BME280;58908;51.426;7.714;2023-02-03T07:36:16;100483.56;;;7.16;100.00
71195;BME280;58908;51.426;7.714;2023-02-03T07:38:42;100502.84;;;7.15;100.00
71195;BME280;58908;51.426;7.714;2023-02-03T07:41:08;100492.22;;;7.19;100.00
71195;BME280;58908;51.426;7.714;2023-02-03T07:43:36;100487.03;;;7.18;100.00
71195;BME280;58908;51.426;7.714;2023-02-03T07:46:02;100494.13;;;7.14;100.00
71195;BME280;58908;51.426;7.714;2023-02-03T07:48:29;100494.13;;;7.14;100.00
71195;BME280;58908;51.426;7.714;2023-02-03T07:50:55;100502.00;;;7.14;100.00
71195;BME280;58908;51.426;7.714;2023-02-03T07:53:21;100514.09;;;7.18;100.00
71195;BME280;58908;51.426;7.714;2023-02-03T07:55:48;100512.28;;;7.20;100.00
71195;BME280;58908;51.426;7.714;2023-02-03T07:58:14;100499.91;;;7.25;100.00
71195;BME280;58908;51.426;7.714;2023-02-03T08:00:42;100495.50;;;7.26;100.00
71195;BME280;58908;51.426;7.714;2023-02-03T08:03:08;100507.69;;;7.27;100.00
71195;BME280;58908;51.426;7.714;2023-02-03T08:05:35;100515.41;;;7.33;100.00
71195;BME280;58908;51.426;7.714;2023-02-03T08:08:01;100517.91;;;7.36;100.00
71195;BME280;58908;51.426;7.714;2023-02-03T08:10:27;100508.28;;;7.36;100.00
71195;BME280;58908;51.426;7.714;2023-02-03T08:12:54;100504.72;;;7.39;100.00
71195;BME280;58908;51.426;7.714;2023-02-03T08:15:20;100505.56;;;7.39;100.00
71195;BME280;58908;51.426;7.714;2023-02-03T08:17:48;100506.47;;;7.38;100.00
71195;BME280;58908;51.426;7.714;2023-02-03T08:20:15;100501.34;;;7.35;100.00
71195;BME280;58908;51.426;7.714;2023-02-03T08:22:41;100512.72;;;7.34;100.00
71195;BME280;58908;51.426;7.714;2023-02-03T08:25:07;100502.09;;;7.39;100.00
71195;BME280;58908;51.426;7.714;2023-02-03T08:27:34;100502.03;;;7.40;100.00
71195;BME280;58908;51.426;7.714;2023-02-03T08:30:00;100511.69;;;7.40;100.00
71195;BME280;58908;51.426;7.714;2023-02-03T08:32:26;100523.94;;;7.39;100.00
71195;BME280;58908;51.426;7.714;2023-02-03T08:34:54;100520.34;;;7.42;100.00
71195;BME280;58908;51.426;7.714;2023-02-03T08:37:21;100519.63;;;7.37;100.00
71195;BME280;58908;51.426;7.714;2023-02-03T08:39:48;100511.59;;;7.41;100.00
71195;BME280;58908;51.426;7.714;2023-02-03T08:42:15;100507.22;;;7.42;100.00
71195;BME280;58908;51.426;7.714;2023-02-03T08:44:41;100502.03;;;7.40;100.00
71195;BME280;58908;51.426;7.714;2023-02-03T08:47:09;100490.53;;;7.44;100.00
71195;BME280;58908;51.426;7.714;2023-02-03T08:49:35;100495.88;;;7.41;100.00
71195;BME280;58908;51.426;7.714;2023-02-03T08:52:05;100499.38;;;7.42;100.00
71195;BME280;58908;51.426;7.714;2023-02-03T08:54:31;100509.13;;;7.37;100.00
71195;BME280;58908;51.426;7.714;2023-02-03T08:56:58;100521.44;;;7.35;100.00
71195;BME280;58908;51.426;7.714;2023-02-03T08:59:24;100524.94;;;7.35;100.00
71195;BME280;58908;51.426;7.714;2023-02-03T09:01:51;100522.31;;;7.35;100.00
71195;BME280;58908;51.426;7.714;2023-02-03T09:04:18;100520.50;;;7.37;100.00
71195;BME280;58908;51.426;7.714;2023-02-03T09:06:48;100522.31;;;7.35;100.00
71195;BME280;58908;51.426;7.714;2023-02-03T09:09:16;100524.16;;;7.33;100.00
71195;BME280;58908;51.426;7.714;2023-02-03T09:11:42;100525.13;;;7.29;100.00
71195;BME280;58908;51.426;7.714;2023-02-03T09:14:08;100532.22;;;7.26;100.00
71195;BME280;58908;51.426;7.714;2023-02-03T09:16:35;100527.06;;;7.24;100.00
71195;BME280;58908;51.426;7.714;2023-02-03T09:19:01;100525.38;;;7.22;100.00
71195;BME280;58908;51.426;7.714;2023-02-03T09:21:27;100527.97;;;7.23;100.00
71195;BME280;58908;51.426;7.714;2023-02-03T09:23:53;100540.94;;;7.28;100.00
71195;BME280;58908;51.426;7.714;2023-02-03T09:26:21;100539.06;;;7.31;100.00
71195;BME280;58908;51.426;7.714;2023-02-03T09:28:47;100535.53;;;7.32;100.00
71195;BME280;58908;51.426;7.714;2023-02-03T09:31:14;100527.72;;;7.31;100.00
71195;BME280;58908;51.426;7.714;2023-02-03T09:33:41;100525.94;;;7.31;100.00
71195;BME280;58908;51.426;7.714;2023-02-03T09:36:08;100529.41;;;7.33;100.00
71195;BME280;58908;51.426;7.714;2023-02-03T09:38:35;100519.78;;;7.32;100.00
71195;BME280;58908;51.426;7.714;2023-02-03T09:41:02;100528.41;;;7.36;100.00
71195;BME280;58908;51.426;7.714;2023-02-03T09:43:34;100527.56;;;7.35;100.00
71195;BME280;58908;51.426;7.714;2023-02-03T09:46:04;100504.00;;;7.34;100.00
71195;BME280;58908;51.426;7.714;2023-02-03T09:48:33;100514.50;;;7.34;100.00
71195;BME280;58908;51.426;7.714;2023-02-03T09:51:01;100506.63;;;7.34;100.00
71195;BME280;58908;51.426;7.714;2023-02-03T09:53:28;100504.88;;;7.34;100.00
71195;BME280;58908;51.426;7.714;2023-02-03T09:55:55;100509.19;;;7.35;100.00
71195;BME280;58908;51.426;7.714;2023-02-03T09:58:23;100510.81;;;7.39;100.00
71195;BME280;58908;51.426;7.714;2023-02-03T10:00:51;100508.94;;;7.43;100.00
71195;BME280;58908;51.426;7.714;2023-02-03T10:03:22;100531.75;;;7.41;100.00
71195;BME280;58908;51.426;7.714;2023-02-03T10:05:54;100510.78;;;7.41;100.00
71195;BME280;58908;51.426;7.714;2023-02-03T10:08:25;100531.69;;;7.42;100.00
71195;BME280;58908;51.426;7.714;2023-02-03T10:10:57;100536.03;;;7.43;100.00
71195;BME280;58908;51.426;7.714;2023-02-03T10:13:35;100531.69;;;7.42;100.00
71195;BME280;58908;51.426;7.714;2023-02-03T10:16:15;100531.66;;;7.44;100.00
71195;BME280;58908;51.426;7.714;2023-02-03T10:18:47;100538.63;;;7.45;100.00
71195;BME280;58908;51.426;7.714;2023-02-03T10:21:16;100531.63;;;7.45;100.00
71195;BME280;58908;51.426;7.714;2023-02-03T10:23:46;100534.13;;;7.48;100.00
71195;BME280;58908;51.426;7.714;2023-02-03T10:26:13;100536.75;;;7.48;100.00
71195;BME280;58908;51.426;7.714;2023-02-03T10:28:43;100532.31;;;7.50;100.00
71195;BME280;58908;51.426;7.714;2023-02-03T10:31:13;100535.88;;;7.48;100.00
71195;BME280;58908;51.426;7.714;2023-02-03T10:33:42;100544.63;;;7.48;100.00
71195;BME280;58908;51.426;7.714;2023-02-03T10:36:10;100551.59;;;7.49;100.00
71195;BME280;58908;51.426;7.714;2023-02-03T10:38:42;100546.34;;;7.49;100.00
71195;BME280;58908;51.426;7.714;2023-02-03T10:41:11;100537.59;;;7.49;100.00
71195;BME280;58908;51.426;7.714;2023-02-03T10:43:37;100547.13;;;7.53;100.00
71195;BME280;58908;51.426;7.714;2023-02-03T10:46:15;100542.84;;;7.49;100.00
71195;BME280;58908;51.426;7.714;2023-02-03T10:48:43;100549.88;;;7.48;100.00
71195;BME280;58908;51.426;7.714;2023-02-03T10:51:11;100553.31;;;7.50;100.00
71195;BME280;58908;51.426;7.714;2023-02-03T10:53:41;100554.19;;;7.51;100.00
71195;BME280;58908;51.426;7.714;2023-02-03T10:56:08;100543.72;;;7.49;100.00
71195;BME280;58908;51.426;7.714;2023-02-03T10:58:36;100541.13;;;7.48;100.00
71195;BME280;58908;51.426;7.714;2023-02-03T11:01:04;100537.53;;;7.52;100.00
71195;BME280;58908;51.426;7.714;2023-02-03T11:03:31;100519.16;;;7.52;100.00
71195;BME280;58908;51.426;7.714;2023-02-03T11:06:06;100522.69;;;7.51;100.00
71195;BME280;58908;51.426;7.714;2023-02-03T11:08:33;100518.34;;;7.50;100.00
71195;BME280;58908;51.426;7.714;2023-02-03T11:11:03;100522.69;;;7.51;100.00
71195;BME280;58908;51.426;7.714;2023-02-03T11:13:30;100528.88;;;7.48;100.00
71195;BME280;58908;51.426;7.714;2023-02-03T11:15:57;100545.44;;;7.50;100.00
71195;BME280;58908;51.426;7.714;2023-02-03T11:18:38;100543.47;;;7.57;100.00
71195;BME280;58908;51.426;7.714;2023-02-03T11:21:07;100547.88;;;7.56;100.00
71195;BME280;58908;51.426;7.714;2023-02-03T11:23:34;100537.38;;;7.56;100.00
71195;BME280;58908;51.426;7.714;2023-02-03T11:26:08;100540.03;;;7.55;100.00
71195;BME280;58908;51.426;7.714;2023-02-03T11:28:35;100557.47;;;7.57;100.00
71195;BME280;58908;51.426;7.714;2023-02-03T11:31:01;100560.94;;;7.58;100.00
71195;BME280;58908;51.426;7.714;2023-02-03T11:33:27;100567.84;;;7.62;100.00
71195;BME280;58908;51.426;7.714;2023-02-03T11:35:54;100569.44;;;7.66;100.00
71195;BME280;58908;51.426;7.714;2023-02-03T11:38:29;100565.78;;;7.70;100.00
71195;BME280;58908;51.426;7.714;2023-02-03T11:40:59;100554.44;;;7.69;100.00
71195;BME280;58908;51.426;7.714;2023-02-03T11:43:26;100563.13;;;7.71;100.00
71195;BME280;58908;51.426;7.714;2023-02-03T11:45:53;100571.91;;;7.70;100.00
71195;BME280;58908;51.426;7.714;2023-02-03T11:48:25;100563.81;;;7.76;100.00
71195;BME280;58908;51.426;7.714;2023-02-03T11:50:56;100562.91;;;7.77;100.00
71195;BME280;58908;51.426;7.714;2023-02-03T11:53:26;100550.00;;;7.71;100.00
71195;BME280;58908;51.426;7.714;2023-02-03T11:56:10;100546.19;;;7.80;100.00
71195;BME280;58908;51.426;7.714;2023-02-03T11:58:44;100541.72;;;7.83;100.00
71195;BME280;58908;51.426;7.714;2023-02-03T12:01:15;100539.22;;;7.79;100.00
71195;BME280;58908;51.426;7.714;2023-02-03T12:06:44;100537.94;;;7.66;100.00
71195;BME280;58908;51.426;7.714;2023-02-03T12:09:18;100516.22;;;7.61;100.00
71195;BME280;58908;51.426;7.714;2023-02-03T12:11:56;100527.56;;;7.61;100.00
71195;BME280;58908;51.426;7.714;2023-02-03T12:14:29;100537.88;;;7.67;100.00
71195;BME280;58908;51.426;7.714;2023-02-03T12:20:01;100548.63;;;7.86;100.00
71195;BME280;58908;51.426;7.714;2023-02-03T12:22:29;100549.31;;;7.91;100.00
71195;BME280;58908;51.426;7.714;2023-02-03T12:25:00;100565.72;;;7.97;100.00
71195;BME280;58908;51.426;7.714;2023-02-03T12:27:36;100548.97;;;8.01;100.00
71195;BME280;58908;51.426;7.714;2023-02-03T12:30:08;100557.53;;;8.06;100.00
71195;BME280;58908;51.426;7.714;2023-02-03T12:32:37;100558.25;;;8.11;100.00
71195;BME280;58908;51.426;7.714;2023-02-03T12:35:10;100556.25;;;8.19;100.00
71195;BME280;58908;51.426;7.714;2023-02-03T12:37:41;100555.16;;;8.25;100.00
71195;BME280;58908;51.426;7.714;2023-02-03T12:40:11;100548.28;;;8.22;100.00
71195;BME280;58908;51.426;7.714;2023-02-03T12:42:41;100549.81;;;8.28;100.00
71195;BME280;58908;51.426;7.714;2023-02-03T12:45:09;100550.91;;;8.22;100.00
71195;BME280;58908;51.426;7.714;2023-02-03T12:47:37;100555.81;;;8.31;100.00
71195;BME280;58908;51.426;7.714;2023-02-03T12:50:06;100569.72;;;8.35;100.00
71195;BME280;58908;51.426;7.714;2023-02-03T12:52:39;100559.91;;;8.40;100.00
71195;BME280;58908;51.426;7.714;2023-02-03T12:55:14;100554.66;;;8.40;100.00
71195;BME280;58908;51.426;7.714;2023-02-03T12:57:45;100561.53;;;8.42;100.00
71195;BME280;58908;51.426;7.714;2023-02-03T13:00:19;100572.13;;;8.41;100.00
71195;BME280;58908;51.426;7.714;2023-02-03T13:02:53;100560.53;;;8.46;100.00